Latest Weather Observations for Mount Ginini

IDN60901

Issued at 7:31 pm EDT Wednesday 25 November 2020 (issued every 10 minutes, with the page automatically refreshed every 10 minutes)

About weather observations | Map of Canberra area stations | Latest observations for Canberra area | Other Formats
Station Details ID: 070349 Name: MOUNT GININI AWS Lat: -35.53 Lon: 148.77 Height: 1760.0 m
Data from the previous 72 hours. | See also: Recent months at Mount Ginini
Date/Time
EDT
Temp
°C
App
Temp
°C
Dew
Point
°C
Rel
Hum
%
Delta-T
°C
Wind Press
QNH
hPa
Press
MSL
hPa
Rain since
9am
mm
Dir  Spd
km/h
Gust
km/h
Spd
kts
Gust
kts
25/07:30pm 13.3 10.1 10.1 81 1.8 WSW 17 32 9 17 - - 0.0
25/07:00pm 13.4 10.7 11.8 90 0.9 W 17 28 9 15 - - 0.0
25/06:30pm 13.8 10.9 11.0 83 1.6 W 17 28 9 15 - - 0.0
25/06:00pm 14.3 11.3 10.5 78 2.2 W 17 32 9 17 - - 0.0
25/05:30pm 15.8 12.9 9.7 67 3.5 W 15 30 8 16 - - 0.0
25/05:00pm 15.6 12.9 10.2 70 3.1 W 15 32 8 17 - - 0.0
25/04:30pm 16.0 13.7 10.3 69 3.3 WNW 13 26 7 14 - - 0.0
25/04:00pm 17.3 15.0 10.4 64 4.0 WNW 13 30 7 16 - - 0.0
25/03:30pm 16.6 14.3 10.5 67 3.5 WNW 13 32 7 17 - - 0.0
25/03:00pm 16.5 14.2 10.4 67 3.5 WNW 13 24 7 13 - - 0.0
25/02:30pm 15.1 12.9 10.7 75 2.5 WNW 13 26 7 14 - - 0.0
25/02:00pm 16.2 13.7 11.2 72 2.9 WNW 15 26 8 14 - - 0.0
25/01:30pm 15.0 12.9 11.2 78 2.2 WNW 13 28 7 15 - - 0.0
25/01:00pm 15.1 12.3 11.3 78 2.2 WNW 17 32 9 17 - - 0.0
25/12:30pm 14.7 11.8 10.9 78 2.2 WNW 17 30 9 16 - - 0.0
25/12:00pm 13.4 11.0 11.3 87 1.2 WNW 15 26 8 14 - - 0.0
25/11:30am 12.1 9.6 11.0 93 0.6 WNW 15 24 8 13 - - 0.0
25/11:00am 12.4 10.8 11.5 94 0.5 WNW 11 19 6 10 - - 0.0
25/10:30am 11.6 9.8 10.7 94 0.5 WNW 11 19 6 10 - - 0.0
25/10:00am 10.8 9.1 9.9 94 0.5 NW 9 17 5 9 - - 0.0
25/09:30am 10.5 8.8 10.0 97 0.3 NW 9 15 5 8 - - 0.0
25/09:00am 9.3 7.7 8.8 97 0.3 WNW 7 17 4 9 - - 0.0
25/08:30am 8.8 7.1 8.5 98 0.2 WNW 7 13 4 7 - - 0.0
25/08:00am 8.2 6.4 7.9 98 0.2 NW 7 17 4 9 - - 0.0
25/07:30am 7.4 5.6 7.1 98 0.2 NNW 6 11 3 6 - - 0.0
25/07:00am 6.9 5.0 6.5 97 0.2 N 6 9 3 5 - - 0.0
25/06:30am 6.7 4.7 6.3 97 0.2 NNE 6 9 3 5 - - 0.0
25/06:00am 6.6 4.4 6.2 97 0.2 NE 7 13 4 7 - - 0.0
25/05:30am 6.6 4.4 6.2 97 0.2 NE 7 11 4 6 - - 0.0
25/05:00am 6.6 4.4 6.2 97 0.2 ENE 7 11 4 6 - - 0.0
25/04:30am 6.9 4.8 6.5 97 0.2 ENE 7 11 4 6 - - 0.0
25/04:00am 6.9 4.8 6.5 97 0.2 ENE 7 13 4 7 - - 0.0
25/03:30am 7.0 4.5 6.6 97 0.2 E 9 15 5 8 - - 0.0
25/03:00am 6.9 4.4 6.5 97 0.2 ENE 9 15 5 8 - - 0.0
25/02:30am 7.2 4.8 6.8 97 0.2 ENE 9 15 5 8 - - 0.0
25/02:00am 7.3 4.9 6.9 97 0.2 ENE 9 15 5 8 - - 0.0
25/01:30am 7.3 4.9 6.9 97 0.2 ENE 9 15 5 8 - - 0.0
25/01:00am 7.3 4.9 6.9 97 0.2 ENE 9 15 5 8 - - 0.0
25/12:30am 7.4 5.0 7.0 97 0.2 ENE 9 13 5 7 - - 0.0
25/12:00am 7.9 6.0 7.6 98 0.2 ENE 7 13 4 7 - - 0.0
 
Date/Time
EDT
Temp
°C
App
Temp
°C
Dew
Point
°C
Rel
Hum
%
Delta-T
°C
Wind Press
QNH
hPa
Press
MSL
hPa
Rain since
9am
mm
Dir  Spd
km/h
Gust
km/h
Spd
kts
Gust
kts
24/11:30pm 8.2 6.4 7.8 97 0.2 NE 7 13 4 7 - - 0.0
24/11:00pm 8.3 6.5 7.9 97 0.2 NE 7 13 4 7 - - 0.0
24/10:30pm 8.6 6.9 8.2 97 0.2 NE 7 11 4 6 - - 0.0
24/10:00pm 8.8 7.1 8.4 97 0.2 NNE 7 13 4 7 - - 0.0
24/09:30pm 9.0 7.0 8.6 97 0.2 NNE 9 19 5 10 - - 0.0
24/09:00pm 9.4 7.8 8.9 97 0.3 N 7 17 4 9 - - 0.0
24/08:30pm 10.0 8.6 9.4 96 0.3 N 7 15 4 8 - - 0.0
24/08:00pm 10.7 9.5 9.6 93 0.6 NNW 6 9 3 5 - - 0.0
24/07:30pm 11.2 9.8 9.6 90 0.9 WNW 7 15 4 8 - - 0.0
24/07:00pm 12.8 11.2 10.2 84 1.5 WNW 9 15 5 8 - - 0.0
24/06:30pm 12.4 11.1 10.1 86 1.3 WNW 7 19 4 10 - - 0.0
24/06:00pm 12.1 10.7 9.7 85 1.3 WNW 7 15 4 8 - - 0.0
24/05:30pm 13.5 12.2 10.1 80 1.9 W 7 15 4 8 - - 0.0
24/05:00pm 12.9 11.5 8.8 76 2.3 WNW 6 19 3 10 - - 0.0
24/04:30pm 15.9 14.8 10.7 71 3.0 W 7 17 4 9 - - 0.0
24/04:00pm 14.6 12.9 8.5 67 3.4 WSW 7 15 4 8 - - 0.0
24/03:30pm 14.7 13.1 10.3 75 2.5 WSW 9 17 5 9 - - 0.0
24/03:00pm 13.4 12.2 10.4 82 1.7 WNW 7 15 4 8 - - 0.0
24/02:30pm 13.9 12.4 9.1 73 2.7 W 7 19 4 10 - - 0.0
24/02:00pm 13.1 11.2 9.0 76 2.3 W 9 19 5 10 - - 0.0
24/01:30pm 12.6 11.1 9.1 79 1.9 WSW 7 19 4 10 - - 0.0
24/01:00pm 12.5 10.0 8.2 75 2.3 WNW 11 20 6 11 - - 0.0
24/12:30pm 12.3 10.6 8.2 76 2.2 W 7 20 4 11 - - 0.0
24/12:00pm 11.8 9.6 7.7 76 2.2 NW 9 19 5 10 - - 0.0
24/11:30am 12.0 9.9 8.3 78 2.0 W 9 20 5 11 - - 0.0
24/11:00am 11.2 9.2 10.1 93 0.6 WNW 11 22 6 12 - - 0.0
24/10:30am 10.6 8.6 8.7 88 1.0 W 9 17 5 9 - - 0.0
24/10:00am 9.9 8.5 9.0 94 0.5 WNW 6 13 3 7 - - 0.0
24/09:30am 9.2 7.7 8.3 94 0.5 WNW 6 13 3 7 - - 0.0
24/09:00am 8.6 6.7 7.5 93 0.6 WSW 7 13 4 7 - - 23.0
24/08:30am 8.5 6.7 7.1 91 0.7 WSW 6 11 3 6 - - 23.0
24/08:00am 8.4 6.8 6.2 86 1.1 W 4 9 2 5 - - 23.0
24/07:30am 7.6 5.3 5.7 88 0.9 W 7 13 4 7 - - 23.0
24/07:00am 7.3 4.6 5.6 89 0.8 WSW 9 17 5 9 - - 23.0
24/06:30am 6.3 3.5 5.3 93 0.5 SW 9 15 5 8 - - 23.0
24/06:00am 6.5 3.4 5.5 93 0.5 SW 11 17 6 9 - - 23.0
24/05:30am 6.5 3.1 4.2 85 1.1 SW 11 15 6 8 - - 23.0
24/05:00am 6.6 3.2 3.9 83 1.3 SSW 11 19 6 10 - - 23.0
24/04:30am 6.3 2.8 3.3 81 1.4 SSW 11 15 6 8 - - 23.0
24/04:00am 6.4 2.7 2.5 76 1.8 SW 11 17 6 9 - - 23.0
24/03:30am 6.6 3.3 2.3 74 2.0 SW 9 17 5 9 - - 23.0
24/03:00am 6.6 2.9 2.5 75 1.9 SSW 11 15 6 8 - - 23.0
24/02:30am 6.8 3.2 2.9 76 1.8 SSW 11 17 6 9 - - 23.0
24/02:00am 6.7 2.8 3.5 80 1.5 SSW 13 19 7 10 - - 23.0
24/01:30am 6.6 2.8 5.7 94 0.4 S 15 24 8 13 - - 23.0
24/01:00am 6.3 2.5 5.7 96 0.3 S 15 20 8 11 - - 23.0
24/12:30am 6.7 4.1 6.0 95 0.4 S 9 19 5 10 - - 23.0
24/12:00am 7.1 3.8 6.4 95 0.4 S 13 20 7 11 - - 23.0
 
Date/Time
EDT
Temp
°C
App
Temp
°C
Dew
Point
°C
Rel
Hum
%
Delta-T
°C
Wind Press
QNH
hPa
Press
MSL
hPa
Rain since
9am
mm
Dir  Spd
km/h
Gust
km/h
Spd
kts
Gust
kts
23/11:30pm 7.1 4.6 6.5 96 0.3 S 9 13 5 7 - - 23.0
23/11:00pm 7.3 4.8 6.6 95 0.4 SSW 9 15 5 8 - - 23.0
23/10:30pm 7.7 5.3 7.0 95 0.4 SW 9 13 5 7 - - 23.0
23/10:00pm 8.1 5.4 7.2 94 0.5 SSW 11 15 6 8 - - 23.0
23/09:30pm 8.2 5.1 7.3 94 0.5 SSW 13 17 7 9 - - 23.0
23/09:00pm 8.4 5.4 7.5 94 0.5 SSW 13 19 7 10 - - 23.0
23/08:30pm 8.8 6.2 7.7 93 0.6 SW 11 20 6 11 - - 23.0
23/08:00pm 9.7 6.7 7.8 88 1.0 SSW 13 20 7 11 - - 23.0
23/07:30pm 10.2 8.2 8.5 89 0.9 S 9 17 5 9 - - 23.0
23/07:00pm 10.2 6.1 6.2 76 2.1 SSW 17 32 9 17 - - 23.0
23/06:30pm 11.3 5.6 6.6 73 2.5 SSW 26 46 14 25 - - 23.0
23/06:24pm 10.8 4.6 6.0 72 2.5 SSW 28 46 15 25 - - 23.0
23/06:00pm 11.4 7.7 8.1 80 1.8 SSW 17 32 9 17 - - 23.0
23/05:30pm 12.2 8.4 9.0 81 1.8 SW 19 37 10 20 - - 23.0
23/05:00pm 11.9 8.1 9.8 87 1.2 SW 20 41 11 22 - - 23.0
23/04:34pm 11.7 6.1 8.9 83 1.5 SW 28 52 15 28 - - 23.0
23/04:30pm 12.1 7.0 9.1 82 1.7 SW 26 48 14 26 - - 23.0
23/04:00pm 12.6 7.8 11.5 93 0.6 SW 28 46 15 25 - - 23.0
23/03:50pm 12.1 8.3 9.8 86 1.3 SW 20 54 11 29 - - 23.0
23/03:30pm 12.4 9.6 11.5 94 0.5 WSW 17 33 9 18 - - 23.0
23/03:00pm 12.5 9.9 11.9 96 0.4 WSW 17 37 9 20 - - 22.8
23/02:30pm 10.8 6.4 10.5 98 0.2 WSW 24 48 13 26 - - 22.8
23/02:12pm 9.3 3.8 9.0 98 0.2 WSW 28 50 15 27 - - 22.8
23/02:00pm 8.5 3.1 8.2 98 0.2 WSW 26 59 14 32 - - 22.8
23/01:30pm 7.1 0.1 6.7 97 0.2 SW 33 63 18 34 - - 21.8
23/01:00pm 6.8 -1.1 6.4 97 0.2 SW 37 61 20 33 - - 20.4
23/12:37pm 5.8 -3.4 5.4 97 0.2 SW 43 93 23 50 - - 17.6
23/12:34pm 5.1 -3.1 4.8 98 0.1 WSW 37 93 20 50 - - 16.4
23/12:32pm 7.0 0.5 6.7 98 0.2 W 30 83 16 45 - - 14.4
23/12:31pm 8.7 3.0 8.4 98 0.2 W 28 61 15 33 - - 13.2
23/12:30pm 10.8 6.1 10.5 98 0.2 W 26 54 14 29 - - 12.0
23/12:00pm 11.0 6.3 10.7 98 0.2 WNW 26 57 14 31 - - 4.8
23/11:57am 11.0 5.9 10.7 98 0.2 WNW 28 57 15 31 - - 4.0
23/11:30am 10.9 7.3 10.6 98 0.2 WNW 20 50 11 27 - - 3.2
23/11:00am 10.8 7.2 10.5 98 0.2 WNW 20 39 11 21 - - 0.8
23/10:30am 10.7 6.7 10.4 98 0.2 W 22 41 12 22 - - 0.8
23/10:00am 10.7 7.1 10.4 98 0.2 W 20 39 11 21 - - 0.8
23/09:30am 10.9 7.9 10.6 98 0.2 W 17 35 9 19 - - 0.8
23/09:00am 10.9 7.5 10.6 98 0.2 W 19 35 10 19 - - 50.6
23/08:30am 10.8 7.8 10.5 98 0.2 W 17 33 9 18 - - 50.6
23/08:00am 10.5 8.1 10.2 98 0.2 WSW 13 30 7 16 - - 50.6
23/07:30am 10.4 7.2 10.1 98 0.2 WSW 17 33 9 18 - - 50.0
23/07:00am 10.3 7.1 10.0 98 0.2 WSW 17 35 9 19 - - 49.0
23/06:30am 10.2 7.4 9.9 98 0.2 WSW 15 32 8 17 - - 49.0
23/06:00am 10.2 8.1 9.9 98 0.2 WSW 11 24 6 13 - - 49.0
23/05:30am 10.1 7.6 9.8 98 0.2 W 13 20 7 11 - - 49.0
23/05:00am 10.1 7.6 9.8 98 0.2 W 13 24 7 13 - - 49.0
23/04:30am 10.0 7.9 9.7 98 0.2 W 11 20 6 11 - - 49.0
23/04:00am 10.1 8.4 9.8 98 0.2 W 9 17 5 9 - - 49.0
23/03:30am 10.1 8.4 9.8 98 0.2 W 9 19 5 10 - - 49.0
23/03:00am 10.2 8.9 9.9 98 0.2 WNW 7 17 4 9 - - 49.0
23/02:30am 10.5 8.1 10.2 98 0.2 W 13 26 7 14 - - 47.6
23/02:00am 10.9 9.4 10.6 98 0.2 WSW 9 20 5 11 - - 46.8
23/01:30am 11.1 9.3 10.8 98 0.2 WSW 11 20 6 11 - - 46.8
23/01:00am 11.4 9.3 11.1 98 0.2 W 13 24 7 13 - - 43.0
23/12:30am 11.2 9.0 10.7 97 0.3 W 13 24 7 13 - - 38.0
23/12:00am 11.5 8.6 11.0 97 0.3 W 17 32 9 17 - - 29.4
 
Date/Time
EDT
Temp
°C
App
Temp
°C
Dew
Point
°C
Rel
Hum
%
Delta-T
°C
Wind Press
QNH
hPa
Press
MSL
hPa
Rain since
9am
mm
Dir  Spd
km/h
Gust
km/h
Spd
kts
Gust
kts
22/11:30pm 11.6 10.2 11.0 96 0.3 W 9 17 5 9 - - 17.0
22/11:00pm 11.6 9.1 11.0 96 0.3 W 15 28 8 15 - - 15.6
22/10:30pm 11.5 10.0 10.7 95 0.5 WNW 9 15 5 8 - - 9.0
22/10:00pm 11.8 11.0 11.0 95 0.5 NNE 6 13 3 7 - - 3.8
22/09:30pm 11.6 9.4 10.8 95 0.5 WSW 13 22 7 12 - - 2.6
22/09:00pm 12.4 10.3 9.8 84 1.5 SSW 11 13 6 7 - - 1.4
22/08:30pm 13.2 9.4 9.1 76 2.3 SSW 19 32 10 17 - - 1.2
22/08:00pm 14.8 11.8 9.4 70 3.0 S 15 20 8 11 - - 1.2

Latest Capital City Observations: Canberra | Sydney | Melbourne | Brisbane | Adelaide | Perth | Hobart | Darwin

Other formats

Comma delimited format used in spreadsheet applications
http://www.bom.gov.au/fwo/IDN60903/IDN60903.95925.axf

JavaScript Object Notation format (JSON) in row-major order
http://www.bom.gov.au/fwo/IDN60903/IDN60903.95925.json

Data quality

Most of these data are generated automatically and are frequently updated. Quality checks on data are not normally performed. It is possible for incorrect values to appear. Refer to information at About Latest Weather Observations and please check the disclaimer before using these data.